Terminal Aerodrome Forecast
Issued by NWS

Home | Current Version | Previous Version | Graphics & Text | Print | Product List | Glossary On
Versions: 1 2 3 4 5 6 7 8 9 10 11 12 13 14 15 16 17 18
000
FTUS43 KMPX 272339
TAFRNH
TAF
KRNH 272339Z 2800/2824 14007KT P6SM SCT040 BKN100
     FM280800 15006KT P6SM VCSH BKN040
     FM281000 13009KT 6SM -SHRA BR BKN030
     FM281200 12007KT 5SM -RA BR SCT008 BKN015
     FM281500 12010KT 6SM -SHRA BKN008
     FM282000 10008KT P6SM BKN020
     FM282200 09009KT P6SM BKN040=

USA.gov is the U.S. government's official web portal to all federal, state and local government web resources and services.